sensor_id;sensor_type;location;lat;lon;timestamp;P1;durP1;ratioP1;P2;durP2;ratioP2
1014;SDS011;8170;48.118;11.628;2023-04-30T00:00:21;7.05;;;6.30;;
1014;SDS011;8170;48.118;11.628;2023-04-30T00:01:24;7.57;;;6.75;;
1014;SDS011;8170;48.118;11.628;2023-04-30T00:02:26;7.65;;;6.55;;
1014;SDS011;8170;48.118;11.628;2023-04-30T00:03:29;7.35;;;6.60;;
1014;SDS011;8170;48.118;11.628;2023-04-30T00:04:33;7.40;;;6.57;;
1014;SDS011;8170;48.118;11.628;2023-04-30T00:05:37;7.63;;;6.90;;
1014;SDS011;8170;48.118;11.628;2023-04-30T00:06:40;7.10;;;6.40;;
1014;SDS011;8170;48.118;11.628;2023-04-30T00:07:42;7.13;;;6.43;;
1014;SDS011;8170;48.118;11.628;2023-04-30T00:08:45;6.20;;;5.60;;
1014;SDS011;8170;48.118;11.628;2023-04-30T00:09:47;6.82;;;6.20;;
1014;SDS011;8170;48.118;11.628;2023-04-30T00:10:51;7.43;;;6.30;;
1014;SDS011;8170;48.118;11.628;2023-04-30T00:11:53;6.05;;;5.45;;
1014;SDS011;8170;48.118;11.628;2023-04-30T00:12:57;6.65;;;5.95;;
1014;SDS011;8170;48.118;11.628;2023-04-30T00:13:59;7.57;;;6.78;;
1014;SDS011;8170;48.118;11.628;2023-04-30T00:15:02;6.95;;;6.25;;
1014;SDS011;8170;48.118;11.628;2023-04-30T00:16:04;6.80;;;6.10;;
1014;SDS011;8170;48.118;11.628;2023-04-30T00:17:08;7.18;;;5.85;;
1014;SDS011;8170;48.118;11.628;2023-04-30T00:18:10;7.55;;;6.00;;
1014;SDS011;8170;48.118;11.628;2023-04-30T00:19:13;6.35;;;5.75;;
1014;SDS011;8170;48.118;11.628;2023-04-30T00:20:17;7.95;;;6.25;;
1014;SDS011;8170;48.118;11.628;2023-04-30T00:21:20;7.43;;;6.72;;
1014;SDS011;8170;48.118;11.628;2023-04-30T00:22:22;7.32;;;6.20;;
1014;SDS011;8170;48.118;11.628;2023-04-30T00:23:25;6.90;;;5.78;;
1014;SDS011;8170;48.118;11.628;2023-04-30T00:24:27;6.78;;;6.13;;
1014;SDS011;8170;48.118;11.628;2023-04-30T00:25:31;6.95;;;6.18;;
1014;SDS011;8170;48.118;11.628;2023-04-30T00:26:36;7.18;;;6.45;;
1014;SDS011;8170;48.118;11.628;2023-04-30T00:27:39;8.82;;;7.78;;
1014;SDS011;8170;48.118;11.628;2023-04-30T00:28:42;7.50;;;6.80;;
1014;SDS011;8170;48.118;11.628;2023-04-30T00:29:45;6.78;;;6.00;;
1014;SDS011;8170;48.118;11.628;2023-04-30T00:30:47;7.45;;;6.40;;
1014;SDS011;8170;48.118;11.628;2023-04-30T00:31:50;6.90;;;5.82;;
1014;SDS011;8170;48.118;11.628;2023-04-30T00:32:52;7.07;;;6.38;;
1014;SDS011;8170;48.118;11.628;2023-04-30T00:33:55;7.75;;;6.30;;
1014;SDS011;8170;48.118;11.628;2023-04-30T00:34:58;9.07;;;6.32;;
1014;SDS011;8170;48.118;11.628;2023-04-30T00:36:02;7.20;;;6.50;;
1014;SDS011;8170;48.118;11.628;2023-04-30T00:37:05;7.03;;;6.32;;
1014;SDS011;8170;48.118;11.628;2023-04-30T00:38:08;6.85;;;6.15;;
1014;SDS011;8170;48.118;11.628;2023-04-30T00:39:10;7.22;;;6.45;;
1014;SDS011;8170;48.118;11.628;2023-04-30T00:40:13;7.55;;;6.55;;
1014;SDS011;8170;48.118;11.628;2023-04-30T00:41:16;6.97;;;6.28;;
1014;SDS011;8170;48.118;11.628;2023-04-30T00:42:20;7.50;;;6.80;;
1014;SDS011;8170;48.118;11.628;2023-04-30T00:43:22;7.57;;;6.88;;
1014;SDS011;8170;48.118;11.628;2023-04-30T00:44:25;6.95;;;6.25;;
1014;SDS011;8170;48.118;11.628;2023-04-30T00:45:27;7.97;;;7.18;;
1014;SDS011;8170;48.118;11.628;2023-04-30T00:46:31;7.18;;;6.45;;
1014;SDS011;8170;48.118;11.628;2023-04-30T00:47:33;8.15;;;7.07;;
1014;SDS011;8170;48.118;11.628;2023-04-30T00:48:36;7.43;;;6.72;;
1014;SDS011;8170;48.118;11.628;2023-04-30T00:49:39;6.80;;;5.90;;
1014;SDS011;8170;48.118;11.628;2023-04-30T00:50:43;6.90;;;6.25;;
1014;SDS011;8170;48.118;11.628;2023-04-30T00:51:46;7.88;;;6.40;;
1014;SDS011;8170;48.118;11.628;2023-04-30T00:52:50;7.20;;;5.72;;
1014;SDS011;8170;48.118;11.628;2023-04-30T00:53:53;6.97;;;6.28;;
1014;SDS011;8170;48.118;11.628;2023-04-30T00:54:56;6.90;;;6.20;;
1014;SDS011;8170;48.118;11.628;2023-04-30T00:55:58;7.40;;;6.70;;
1014;SDS011;8170;48.118;11.628;2023-04-30T00:57:02;8.75;;;6.30;;
1014;SDS011;8170;48.118;11.628;2023-04-30T00:58:07;6.50;;;5.90;;
1014;SDS011;8170;48.118;11.628;2023-04-30T00:59:10;7.65;;;6.95;;
1014;SDS011;8170;48.118;11.628;2023-04-30T01:00:13;7.95;;;7.20;;
1014;SDS011;8170;48.118;11.628;2023-04-30T01:01:18;8.00;;;6.82;;
1014;SDS011;8170;48.118;11.628;2023-04-30T01:02:21;8.05;;;7.25;;
1014;SDS011;8170;48.118;11.628;2023-04-30T01:03:25;7.10;;;6.40;;
1014;SDS011;8170;48.118;11.628;2023-04-30T01:04:29;7.70;;;6.53;;
1014;SDS011;8170;48.118;11.628;2023-04-30T01:05:33;6.93;;;6.03;;
1014;SDS011;8170;48.118;11.628;2023-04-30T01:06:35;7.13;;;6.43;;
1014;SDS011;8170;48.118;11.628;2023-04-30T01:07:40;7.00;;;6.32;;
1014;SDS011;8170;48.118;11.628;2023-04-30T01:08:45;7.95;;;6.15;;
1014;SDS011;8170;48.118;11.628;2023-04-30T01:09:49;10.00;;;7.55;;
1014;SDS011;8170;48.118;11.628;2023-04-30T01:10:52;8.82;;;7.75;;
1014;SDS011;8170;48.118;11.628;2023-04-30T01:12:05;8.00;;;7.30;;
1014;SDS011;8170;48.118;11.628;2023-04-30T01:13:11;8.35;;;7.47;;
1014;SDS011;8170;48.118;11.628;2023-04-30T01:14:26;6.95;;;6.28;;
1014;SDS011;8170;48.118;11.628;2023-04-30T01:15:33;7.35;;;6.55;;
1014;SDS011;8170;48.118;11.628;2023-04-30T01:16:42;7.30;;;6.60;;
1014;SDS011;8170;48.118;11.628;2023-04-30T01:17:53;7.90;;;7.15;;
1014;SDS011;8170;48.118;11.628;2023-04-30T01:18:58;7.70;;;6.95;;
1014;SDS011;8170;48.118;11.628;2023-04-30T01:20:12;8.23;;;7.40;;
1014;SDS011;8170;48.118;11.628;2023-04-30T01:21:15;10.95;;;7.45;;
1014;SDS011;8170;48.118;11.628;2023-04-30T01:22:24;8.02;;;7.22;;
1014;SDS011;8170;48.118;11.628;2023-04-30T01:23:46;7.45;;;6.65;;
1014;SDS011;8170;48.118;11.628;2023-04-30T01:25:06;8.18;;;7.35;;
1014;SDS011;8170;48.118;11.628;2023-04-30T01:26:28;9.10;;;7.05;;
1014;SDS011;8170;48.118;11.628;2023-04-30T01:27:59;7.57;;;6.82;;
1014;SDS011;8170;48.118;11.628;2023-04-30T01:29:04;7.35;;;6.18;;
1014;SDS011;8170;48.118;11.628;2023-04-30T01:30:09;8.57;;;7.55;;
1014;SDS011;8170;48.118;11.628;2023-04-30T01:31:13;8.18;;;7.13;;
1014;SDS011;8170;48.118;11.628;2023-04-30T01:32:18;7.60;;;6.65;;
1014;SDS011;8170;48.118;11.628;2023-04-30T01:33:22;8.43;;;7.63;;
1014;SDS011;8170;48.118;11.628;2023-04-30T01:34:24;9.18;;;8.07;;
1014;SDS011;8170;48.118;11.628;2023-04-30T01:37:09;8.52;;;7.40;;
1014;SDS011;8170;48.118;11.628;2023-04-30T01:38:19;7.82;;;6.70;;
1014;SDS011;8170;48.118;11.628;2023-04-30T01:39:38;8.60;;;7.70;;
1014;SDS011;8170;48.118;11.628;2023-04-30T01:40:52;9.05;;;8.15;;
1014;SDS011;8170;48.118;11.628;2023-04-30T01:42:01;8.70;;;7.80;;
1014;SDS011;8170;48.118;11.628;2023-04-30T01:43:11;8.40;;;7.32;;
1014;SDS011;8170;48.118;11.628;2023-04-30T01:44:23;8.15;;;6.28;;
1014;SDS011;8170;48.118;11.628;2023-04-30T01:45:46;7.90;;;7.10;;
1014;SDS011;8170;48.118;11.628;2023-04-30T01:46:57;7.10;;;6.40;;
1014;SDS011;8170;48.118;11.628;2023-04-30T01:48:12;8.45;;;7.60;;
1014;SDS011;8170;48.118;11.628;2023-04-30T01:49:26;10.85;;;7.65;;
1014;SDS011;8170;48.118;11.628;2023-04-30T01:50:41;8.52;;;7.70;;
1014;SDS011;8170;48.118;11.628;2023-04-30T01:51:47;7.40;;;6.70;;
1014;SDS011;8170;48.118;11.628;2023-04-30T01:52:58;9.00;;;8.10;;
1014;SDS011;8170;48.118;11.628;2023-04-30T01:54:05;9.80;;;7.00;;
1014;SDS011;8170;48.118;11.628;2023-04-30T01:55:17;7.78;;;6.97;;
1014;SDS011;8170;48.118;11.628;2023-04-30T01:56:24;7.80;;;7.00;;
1014;SDS011;8170;48.118;11.628;2023-04-30T01:57:32;8.68;;;7.88;;
1014;SDS011;8170;48.118;11.628;2023-04-30T01:58:42;7.78;;;6.97;;
1014;SDS011;8170;48.118;11.628;2023-04-30T01:59:48;8.07;;;7.25;;
1014;SDS011;8170;48.118;11.628;2023-04-30T02:00:53;8.70;;;7.38;;
1014;SDS011;8170;48.118;11.628;2023-04-30T02:01:55;9.00;;;7.75;;
1014;SDS011;8170;48.118;11.628;2023-04-30T02:02:58;8.65;;;7.20;;
1014;SDS011;8170;48.118;11.628;2023-04-30T02:04:00;8.15;;;7.00;;
1014;SDS011;8170;48.118;11.628;2023-04-30T02:05:05;8.98;;;7.93;;
1014;SDS011;8170;48.118;11.628;2023-04-30T02:06:07;8.38;;;7.10;;
1014;SDS011;8170;48.118;11.628;2023-04-30T02:07:11;9.30;;;8.18;;
1014;SDS011;8170;48.118;11.628;2023-04-30T02:08:18;11.10;;;7.82;;
1014;SDS011;8170;48.118;11.628;2023-04-30T02:09:21;8.63;;;7.72;;
1014;SDS011;8170;48.118;11.628;2023-04-30T02:10:25;7.88;;;7.07;;
1014;SDS011;8170;48.118;11.628;2023-04-30T02:11:29;7.68;;;6.88;;
1014;SDS011;8170;48.118;11.628;2023-04-30T02:12:31;7.63;;;6.93;;
1014;SDS011;8170;48.118;11.628;2023-04-30T02:13:35;7.72;;;6.93;;
1014;SDS011;8170;48.118;11.628;2023-04-30T02:14:38;7.90;;;7.10;;
1014;SDS011;8170;48.118;11.628;2023-04-30T02:15:41;8.95;;;8.02;;
1014;SDS011;8170;48.118;11.628;2023-04-30T02:16:44;8.38;;;7.57;;
1014;SDS011;8170;48.118;11.628;2023-04-30T02:17:47;8.38;;;7.53;;
1014;SDS011;8170;48.118;11.628;2023-04-30T02:18:50;8.50;;;7.70;;
1014;SDS011;8170;48.118;11.628;2023-04-30T02:19:53;8.88;;;7.97;;
1014;SDS011;8170;48.118;11.628;2023-04-30T02:20:56;9.23;;;7.65;;
1014;SDS011;8170;48.118;11.628;2023-04-30T02:21:59;8.60;;;7.80;;
1014;SDS011;8170;48.118;11.628;2023-04-30T02:23:01;8.23;;;7.43;;
1014;SDS011;8170;48.118;11.628;2023-04-30T02:24:05;8.88;;;7.93;;
1014;SDS011;8170;48.118;11.628;2023-04-30T02:25:07;8.85;;;7.95;;
1014;SDS011;8170;48.118;11.628;2023-04-30T02:26:12;9.45;;;7.60;;
1014;SDS011;8170;48.118;11.628;2023-04-30T02:27:15;9.43;;;8.52;;
1014;SDS011;8170;48.118;11.628;2023-04-30T02:28:18;8.80;;;7.78;;
1014;SDS011;8170;48.118;11.628;2023-04-30T02:29:20;9.40;;;8.50;;
1014;SDS011;8170;48.118;11.628;2023-04-30T02:30:24;9.10;;;8.20;;
1014;SDS011;8170;48.118;11.628;2023-04-30T02:31:26;10.70;;;7.95;;
1014;SDS011;8170;48.118;11.628;2023-04-30T02:32:29;10.00;;;7.55;;
1014;SDS011;8170;48.118;11.628;2023-04-30T02:33:32;8.70;;;7.80;;
1014;SDS011;8170;48.118;11.628;2023-04-30T02:34:35;10.25;;;8.30;;
1014;SDS011;8170;48.118;11.628;2023-04-30T02:35:38;11.23;;;8.10;;
1014;SDS011;8170;48.118;11.628;2023-04-30T02:36:42;9.73;;;8.73;;
1014;SDS011;8170;48.118;11.628;2023-04-30T02:37:44;8.80;;;7.93;;
1014;SDS011;8170;48.118;11.628;2023-04-30T02:38:47;9.85;;;8.73;;
1014;SDS011;8170;48.118;11.628;2023-04-30T02:39:50;9.55;;;8.50;;
1014;SDS011;8170;48.118;11.628;2023-04-30T02:40:55;9.90;;;8.88;;
1014;SDS011;8170;48.118;11.628;2023-04-30T02:41:57;8.93;;;8.02;;
1014;SDS011;8170;48.118;11.628;2023-04-30T02:43:00;9.80;;;8.85;;
1014;SDS011;8170;48.118;11.628;2023-04-30T02:44:02;11.05;;;8.88;;
1014;SDS011;8170;48.118;11.628;2023-04-30T02:45:06;8.57;;;7.78;;
1014;SDS011;8170;48.118;11.628;2023-04-30T02:46:10;13.02;;;9.05;;
1014;SDS011;8170;48.118;11.628;2023-04-30T02:47:14;9.30;;;8.30;;
1014;SDS011;8170;48.118;11.628;2023-04-30T02:48:16;10.15;;;9.10;;
1014;SDS011;8170;48.118;11.628;2023-04-30T02:49:19;9.77;;;8.75;;
1014;SDS011;8170;48.118;11.628;2023-04-30T02:50:21;9.63;;;8.55;;
1014;SDS011;8170;48.118;11.628;2023-04-30T02:51:24;9.65;;;8.65;;
1014;SDS011;8170;48.118;11.628;2023-04-30T02:52:27;9.05;;;8.20;;
1014;SDS011;8170;48.118;11.628;2023-04-30T02:53:30;9.20;;;8.30;;
1014;SDS011;8170;48.118;11.628;2023-04-30T02:54:32;9.27;;;8.38;;
1014;SDS011;8170;48.118;11.628;2023-04-30T02:55:35;9.15;;;8.25;;
1014;SDS011;8170;48.118;11.628;2023-04-30T02:56:37;10.38;;;9.35;;
1014;SDS011;8170;48.118;11.628;2023-04-30T02:57:41;10.20;;;9.20;;
1014;SDS011;8170;48.118;11.628;2023-04-30T02:58:43;9.15;;;8.25;;
1014;SDS011;8170;48.118;11.628;2023-04-30T02:59:46;10.50;;;9.40;;
1014;SDS011;8170;48.118;11.628;2023-04-30T03:00:49;12.23;;;9.57;;
1014;SDS011;8170;48.118;11.628;2023-04-30T03:01:53;10.50;;;9.40;;
1014;SDS011;8170;48.118;11.628;2023-04-30T03:02:56;8.82;;;7.78;;
1014;SDS011;8170;48.118;11.628;2023-04-30T03:03:59;9.75;;;8.82;;
1014;SDS011;8170;48.118;11.628;2023-04-30T03:05:02;9.27;;;8.27;;
1014;SDS011;8170;48.118;11.628;2023-04-30T03:06:05;10.80;;;8.85;;
1014;SDS011;8170;48.118;11.628;2023-04-30T03:07:07;8.80;;;7.90;;
1014;SDS011;8170;48.118;11.628;2023-04-30T03:08:10;10.60;;;8.23;;
1014;SDS011;8170;48.118;11.628;2023-04-30T03:09:13;10.13;;;9.05;;
1014;SDS011;8170;48.118;11.628;2023-04-30T03:10:16;9.43;;;8.52;;
1014;SDS011;8170;48.118;11.628;2023-04-30T03:11:19;10.18;;;9.18;;
1014;SDS011;8170;48.118;11.628;2023-04-30T03:12:22;10.85;;;9.23;;
1014;SDS011;8170;48.118;11.628;2023-04-30T03:13:24;9.73;;;8.73;;
1014;SDS011;8170;48.118;11.628;2023-04-30T03:14:27;10.43;;;9.02;;
1014;SDS011;8170;48.118;11.628;2023-04-30T03:15:31;9.68;;;8.45;;
1014;SDS011;8170;48.118;11.628;2023-04-30T03:16:34;10.80;;;8.90;;
1014;SDS011;8170;48.118;11.628;2023-04-30T03:17:38;10.27;;;9.18;;
1014;SDS011;8170;48.118;11.628;2023-04-30T03:18:44;10.05;;;9.10;;
1014;SDS011;8170;48.118;11.628;2023-04-30T03:19:46;9.55;;;8.55;;
1014;SDS011;8170;48.118;11.628;2023-04-30T03:20:49;10.02;;;8.82;;
1014;SDS011;8170;48.118;11.628;2023-04-30T03:21:51;9.70;;;8.70;;
1014;SDS011;8170;48.118;11.628;2023-04-30T03:22:55;10.18;;;8.93;;
1014;SDS011;8170;48.118;11.628;2023-04-30T03:23:57;10.32;;;9.32;;
1014;SDS011;8170;48.118;11.628;2023-04-30T03:25:00;9.45;;;8.50;;
1014;SDS011;8170;48.118;11.628;2023-04-30T03:26:03;10.82;;;9.73;;
1014;SDS011;8170;48.118;11.628;2023-04-30T03:27:06;10.77;;;9.20;;
1014;SDS011;8170;48.118;11.628;2023-04-30T03:28:08;12.05;;;9.93;;
1014;SDS011;8170;48.118;11.628;2023-04-30T03:29:11;11.05;;;9.45;;
1014;SDS011;8170;48.118;11.628;2023-04-30T03:30:13;10.35;;;9.35;;
1014;SDS011;8170;48.118;11.628;2023-04-30T03:31:16;11.23;;;8.90;;
1014;SDS011;8170;48.118;11.628;2023-04-30T03:32:19;13.20;;;9.90;;
1014;SDS011;8170;48.118;11.628;2023-04-30T03:33:23;11.25;;;9.65;;
1014;SDS011;8170;48.118;11.628;2023-04-30T03:34:26;10.73;;;9.63;;
1014;SDS011;8170;48.118;11.628;2023-04-30T03:35:29;11.00;;;9.90;;
1014;SDS011;8170;48.118;11.628;2023-04-30T03:36:31;9.70;;;8.70;;
1014;SDS011;8170;48.118;11.628;2023-04-30T03:37:35;10.88;;;9.77;;
1014;SDS011;8170;48.118;11.628;2023-04-30T03:38:37;11.27;;;10.18;;
1014;SDS011;8170;48.118;11.628;2023-04-30T03:39:40;10.80;;;9.70;;
1014;SDS011;8170;48.118;11.628;2023-04-30T03:40:42;13.57;;;9.80;;
1014;SDS011;8170;48.118;11.628;2023-04-30T03:41:45;11.07;;;9.68;;
1014;SDS011;8170;48.118;11.628;2023-04-30T03:42:47;12.27;;;10.25;;
1014;SDS011;8170;48.118;11.628;2023-04-30T03:43:51;12.60;;;10.20;;
1014;SDS011;8170;48.118;11.628;2023-04-30T03:44:54;10.82;;;9.63;;
1014;SDS011;8170;48.118;11.628;2023-04-30T03:45:57;10.52;;;9.43;;
1014;SDS011;8170;48.118;11.628;2023-04-30T03:47:00;11.18;;;9.98;;
1014;SDS011;8170;48.118;11.628;2023-04-30T03:48:03;10.80;;;9.57;;
1014;SDS011;8170;48.118;11.628;2023-04-30T03:49:07;11.98;;;10.63;;
1014;SDS011;8170;48.118;11.628;2023-04-30T03:50:11;12.27;;;10.68;;
1014;SDS011;8170;48.118;11.628;2023-04-30T03:51:14;13.15;;;11.05;;
1014;SDS011;8170;48.118;11.628;2023-04-30T03:52:17;10.88;;;9.88;;
1014;SDS011;8170;48.118;11.628;2023-04-30T03:53:19;14.20;;;10.77;;
1014;SDS011;8170;48.118;11.628;2023-04-30T03:54:23;12.25;;;10.30;;
1014;SDS011;8170;48.118;11.628;2023-04-30T03:55:25;11.60;;;10.32;;
1014;SDS011;8170;48.118;11.628;2023-04-30T03:56:28;12.10;;;10.65;;
1014;SDS011;8170;48.118;11.628;2023-04-30T03:57:33;13.98;;;10.32;;
1014;SDS011;8170;48.118;11.628;2023-04-30T03:58:36;11.75;;;10.25;;
1014;SDS011;8170;48.118;11.628;2023-04-30T03:59:38;11.40;;;10.23;;
1014;SDS011;8170;48.118;11.628;2023-04-30T04:00:42;11.82;;;10.63;;
1014;SDS011;8170;48.118;11.628;2023-04-30T04:01:46;11.55;;;10.35;;
1014;SDS011;8170;48.118;11.628;2023-04-30T04:02:49;13.60;;;10.82;;
1014;SDS011;8170;48.118;11.628;2023-04-30T04:03:52;11.15;;;10.05;;
1014;SDS011;8170;48.118;11.628;2023-04-30T04:04:56;11.98;;;10.77;;
1014;SDS011;8170;48.118;11.628;2023-04-30T04:05:59;12.85;;;11.48;;
1014;SDS011;8170;48.118;11.628;2023-04-30T04:07:02;15.20;;;9.85;;
1014;SDS011;8170;48.118;11.628;2023-04-30T04:08:04;11.73;;;10.55;;
1014;SDS011;8170;48.118;11.628;2023-04-30T04:09:08;12.98;;;11.68;;
1014;SDS011;8170;48.118;11.628;2023-04-30T04:10:10;11.60;;;10.40;;
1014;SDS011;8170;48.118;11.628;2023-04-30T04:11:13;13.02;;;11.02;;
1014;SDS011;8170;48.118;11.628;2023-04-30T04:12:16;11.77;;;9.43;;
1014;SDS011;8170;48.118;11.628;2023-04-30T04:13:18;12.57;;;10.90;;
1014;SDS011;8170;48.118;11.628;2023-04-30T04:14:21;11.38;;;10.18;;
1014;SDS011;8170;48.118;11.628;2023-04-30T04:15:23;11.30;;;10.18;;
1014;SDS011;8170;48.118;11.628;2023-04-30T04:16:27;12.75;;;11.40;;
1014;SDS011;8170;48.118;11.628;2023-04-30T04:17:29;12.88;;;11.48;;
1014;SDS011;8170;48.118;11.628;2023-04-30T04:18:32;11.38;;;10.15;;
1014;SDS011;8170;48.118;11.628;2023-04-30T04:19:34;13.48;;;11.25;;
1014;SDS011;8170;48.118;11.628;2023-04-30T04:20:39;11.27;;;10.10;;
1014;SDS011;8170;48.118;11.628;2023-04-30T04:21:42;11.98;;;10.48;;
1014;SDS011;8170;48.118;11.628;2023-04-30T04:22:48;12.30;;;11.02;;
1014;SDS011;8170;48.118;11.628;2023-04-30T04:23:50;11.48;;;10.27;;
1014;SDS011;8170;48.118;11.628;2023-04-30T04:24:54;11.55;;;10.35;;
1014;SDS011;8170;48.118;11.628;2023-04-30T04:25:57;16.38;;;10.57;;
1014;SDS011;8170;48.118;11.628;2023-04-30T04:27:00;11.65;;;10.52;;
1014;SDS011;8170;48.118;11.628;2023-04-30T04:28:03;11.77;;;10.23;;
1014;SDS011;8170;48.118;11.628;2023-04-30T04:29:06;13.25;;;11.05;;
1014;SDS011;8170;48.118;11.628;2023-04-30T04:30:10;11.23;;;10.13;;
1014;SDS011;8170;48.118;11.628;2023-04-30T04:31:14;11.02;;;10.02;;
1014;SDS011;8170;48.118;11.628;2023-04-30T04:32:17;11.27;;;10.18;;
1014;SDS011;8170;48.118;11.628;2023-04-30T04:33:20;11.80;;;10.70;;
1014;SDS011;8170;48.118;11.628;2023-04-30T04:34:22;11.75;;;10.55;;
1014;SDS011;8170;48.118;11.628;2023-04-30T04:35:25;12.13;;;10.88;;
1014;SDS011;8170;48.118;11.628;2023-04-30T04:36:28;11.43;;;10.15;;
1014;SDS011;8170;48.118;11.628;2023-04-30T04:37:32;11.40;;;10.30;;
1014;SDS011;8170;48.118;11.628;2023-04-30T04:38:35;13.15;;;11.13;;
1014;SDS011;8170;48.118;11.628;2023-04-30T04:39:38;12.23;;;11.02;;
1014;SDS011;8170;48.118;11.628;2023-04-30T04:40:40;12.43;;;11.13;;
1014;SDS011;8170;48.118;11.628;2023-04-30T04:41:52;11.60;;;10.40;;
1014;SDS011;8170;48.118;11.628;2023-04-30T04:42:54;13.40;;;10.93;;
1014;SDS011;8170;48.118;11.628;2023-04-30T04:43:58;11.75;;;10.55;;
1014;SDS011;8170;48.118;11.628;2023-04-30T04:45:00;12.00;;;10.80;;
1014;SDS011;8170;48.118;11.628;2023-04-30T04:46:04;12.95;;;9.75;;
1014;SDS011;8170;48.118;11.628;2023-04-30T04:47:06;11.60;;;10.05;;
1014;SDS011;8170;48.118;11.628;2023-04-30T04:48:10;10.82;;;9.73;;
1014;SDS011;8170;48.118;11.628;2023-04-30T04:49:12;12.45;;;10.40;;
1014;SDS011;8170;48.118;11.628;2023-04-30T04:50:16;13.88;;;10.80;;
1014;SDS011;8170;48.118;11.628;2023-04-30T04:51:18;11.80;;;10.60;;
1014;SDS011;8170;48.118;11.628;2023-04-30T04:52:23;13.30;;;11.90;;
1014;SDS011;8170;48.118;11.628;2023-04-30T04:53:26;13.50;;;12.10;;
1014;SDS011;8170;48.118;11.628;2023-04-30T04:54:29;11.82;;;10.73;;
1014;SDS011;8170;48.118;11.628;2023-04-30T04:55:31;11.75;;;10.65;;
1014;SDS011;8170;48.118;11.628;2023-04-30T04:56:35;12.05;;;10.90;;
1014;SDS011;8170;48.118;11.628;2023-04-30T04:57:37;13.23;;;11.93;;
1014;SDS011;8170;48.118;11.628;2023-04-30T04:58:43;11.10;;;10.00;;
1014;SDS011;8170;48.118;11.628;2023-04-30T04:59:45;13.40;;;12.02;;
1014;SDS011;8170;48.118;11.628;2023-04-30T05:00:48;11.73;;;10.48;;
1014;SDS011;8170;48.118;11.628;2023-04-30T05:01:50;11.55;;;10.35;;
1014;SDS011;8170;48.118;11.628;2023-04-30T05:02:54;11.07;;;9.98;;
1014;SDS011;8170;48.118;11.628;2023-04-30T05:03:56;12.00;;;10.80;;
1014;SDS011;8170;48.118;11.628;2023-04-30T05:04:59;11.82;;;10.63;;
1014;SDS011;8170;48.118;11.628;2023-04-30T05:06:02;11.07;;;9.93;;
1014;SDS011;8170;48.118;11.628;2023-04-30T05:07:05;12.18;;;10.88;;
1014;SDS011;8170;48.118;11.628;2023-04-30T05:08:09;11.65;;;10.55;;
1014;SDS011;8170;48.118;11.628;2023-04-30T05:09:13;13.48;;;10.20;;
1014;SDS011;8170;48.118;11.628;2023-04-30T05:10:15;11.13;;;10.13;;
1014;SDS011;8170;48.118;11.628;2023-04-30T05:11:18;12.05;;;10.85;;
1014;SDS011;8170;48.118;11.628;2023-04-30T05:12:22;11.57;;;10.25;;
1014;SDS011;8170;48.118;11.628;2023-04-30T05:13:25;12.07;;;10.88;;
1014;SDS011;8170;48.118;11.628;2023-04-30T05:14:27;11.40;;;10.20;;
1014;SDS011;8170;48.118;11.628;2023-04-30T05:15:30;12.00;;;10.80;;
1014;SDS011;8170;48.118;11.628;2023-04-30T05:16:32;10.52;;;9.43;;
1014;SDS011;8170;48.118;11.628;2023-04-30T05:17:35;11.50;;;10.32;;
1014;SDS011;8170;48.118;11.628;2023-04-30T05:18:37;12.50;;;11.20;;
1014;SDS011;8170;48.118;11.628;2023-04-30T05:19:41;11.30;;;10.20;;
1014;SDS011;8170;48.118;11.628;2023-04-30T05:20:43;13.77;;;11.65;;
1014;SDS011;8170;48.118;11.628;2023-04-30T05:21:46;11.25;;;10.07;;
1014;SDS011;8170;48.118;11.628;2023-04-30T05:22:48;12.00;;;10.15;;
1014;SDS011;8170;48.118;11.628;2023-04-30T05:23:53;12.38;;;11.18;;
1014;SDS011;8170;48.118;11.628;2023-04-30T05:24:55;10.65;;;9.38;;
1014;SDS011;8170;48.118;11.628;2023-04-30T05:25:58;12.20;;;10.90;;
1014;SDS011;8170;48.118;11.628;2023-04-30T05:27:00;11.10;;;10.10;;
1014;SDS011;8170;48.118;11.628;2023-04-30T05:28:05;10.20;;;9.20;;
1014;SDS011;8170;48.118;11.628;2023-04-30T05:29:07;10.45;;;9.45;;
1014;SDS011;8170;48.118;11.628;2023-04-30T05:30:11;11.80;;;10.70;;
1014;SDS011;8170;48.118;11.628;2023-04-30T05:31:16;10.60;;;9.60;;
1014;SDS011;8170;48.118;11.628;2023-04-30T05:32:21;11.57;;;10.38;;
1014;SDS011;8170;48.118;11.628;2023-04-30T05:33:24;12.00;;;10.90;;
1014;SDS011;8170;48.118;11.628;2023-04-30T05:34:26;10.98;;;9.88;;
1014;SDS011;8170;48.118;11.628;2023-04-30T05:35:30;11.52;;;10.43;;
1014;SDS011;8170;48.118;11.628;2023-04-30T05:36:32;11.90;;;10.32;;
1014;SDS011;8170;48.118;11.628;2023-04-30T05:37:35;11.27;;;10.18;;
1014;SDS011;8170;48.118;11.628;2023-04-30T05:38:37;10.63;;;9.52;;
1014;SDS011;8170;48.118;11.628;2023-04-30T05:39:41;9.90;;;9.00;;
1014;SDS011;8170;48.118;11.628;2023-04-30T05:40:43;11.98;;;10.73;;
1014;SDS011;8170;48.118;11.628;2023-04-30T05:41:47;11.90;;;10.07;;
1014;SDS011;8170;48.118;11.628;2023-04-30T05:42:49;11.85;;;10.70;;
1014;SDS011;8170;48.118;11.628;2023-04-30T05:43:52;10.40;;;9.43;;
1014;SDS011;8170;48.118;11.628;2023-04-30T05:44:54;10.88;;;9.82;;
1014;SDS011;8170;48.118;11.628;2023-04-30T05:45:57;11.95;;;10.80;;
1014;SDS011;8170;48.118;11.628;2023-04-30T05:46:59;11.48;;;10.38;;
1014;SDS011;8170;48.118;11.628;2023-04-30T05:48:03;13.35;;;12.05;;
1014;SDS011;8170;48.118;11.628;2023-04-30T05:49:05;11.15;;;10.05;;
1014;SDS011;8170;48.118;11.628;2023-04-30T05:50:08;11.77;;;10.68;;
1014;SDS011;8170;48.118;11.628;2023-04-30T05:51:11;11.63;;;10.52;;
1014;SDS011;8170;48.118;11.628;2023-04-30T05:52:14;12.00;;;10.63;;
1014;SDS011;8170;48.118;11.628;2023-04-30T05:53:17;11.40;;;10.30;;
1014;SDS011;8170;48.118;11.628;2023-04-30T05:54:21;10.43;;;9.43;;
1014;SDS011;8170;48.118;11.628;2023-04-30T05:55:25;10.50;;;9.50;;
1014;SDS011;8170;48.118;11.628;2023-04-30T05:56:28;10.27;;;9.27;;
1014;SDS011;8170;48.118;11.628;2023-04-30T05:57:30;10.52;;;9.50;;
1014;SDS011;8170;48.118;11.628;2023-04-30T05:58:33;12.88;;;10.52;;
1014;SDS011;8170;48.118;11.628;2023-04-30T05:59:35;12.43;;;11.23;;
1014;SDS011;8170;48.118;11.628;2023-04-30T06:00:38;11.30;;;10.30;;
1014;SDS011;8170;48.118;11.628;2023-04-30T06:01:40;11.55;;;10.45;;
1014;SDS011;8170;48.118;11.628;2023-04-30T06:02:44;10.50;;;8.98;;
1014;SDS011;8170;48.118;11.628;2023-04-30T06:03:46;10.05;;;9.05;;
1014;SDS011;8170;48.118;11.628;2023-04-30T06:04:49;11.45;;;10.10;;
1014;SDS011;8170;48.118;11.628;2023-04-30T06:05:51;11.77;;;10.57;;
1014;SDS011;8170;48.118;11.628;2023-04-30T06:06:55;10.60;;;9.70;;
1014;SDS011;8170;48.118;11.628;2023-04-30T06:07:57;10.38;;;9.38;;
1014;SDS011;8170;48.118;11.628;2023-04-30T06:09:00;10.73;;;9.68;;
1014;SDS011;8170;48.118;11.628;2023-04-30T06:10:04;10.65;;;9.68;;
1014;SDS011;8170;48.118;11.628;2023-04-30T06:11:09;10.98;;;9.88;;
1014;SDS011;8170;48.118;11.628;2023-04-30T06:12:12;12.52;;;11.23;;
1014;SDS011;8170;48.118;11.628;2023-04-30T06:13:15;10.75;;;9.73;;
1014;SDS011;8170;48.118;11.628;2023-04-30T06:14:17;10.73;;;9.73;;
1014;SDS011;8170;48.118;11.628;2023-04-30T06:15:23;11.35;;;9.82;;
1014;SDS011;8170;48.118;11.628;2023-04-30T06:16:26;11.00;;;9.00;;
1014;SDS011;8170;48.118;11.628;2023-04-30T06:17:29;11.70;;;10.50;;
1014;SDS011;8170;48.118;11.628;2023-04-30T06:18:32;11.27;;;10.07;;
1014;SDS011;8170;48.118;11.628;2023-04-30T06:19:35;10.57;;;9.57;;
1014;SDS011;8170;48.118;11.628;2023-04-30T06:20:39;10.10;;;9.10;;
1014;SDS011;8170;48.118;11.628;2023-04-30T06:21:42;10.85;;;9.18;;
1014;SDS011;8170;48.118;11.628;2023-04-30T06:22:44;12.35;;;10.27;;
1014;SDS011;8170;48.118;11.628;2023-04-30T06:23:47;10.60;;;9.65;;
1014;SDS011;8170;48.118;11.628;2023-04-30T06:24:49;11.40;;;10.13;;
1014;SDS011;8170;48.118;11.628;2023-04-30T06:25:52;9.88;;;8.98;;
1014;SDS011;8170;48.118;11.628;2023-04-30T06:26:57;9.73;;;8.73;;
1014;SDS011;8170;48.118;11.628;2023-04-30T06:27:59;9.45;;;8.48;;